Terminal Aerodrome Forecast
Issued by NWS Billings, MT

Home | Current Version | Previous Version | Text Only | Print | Product List | Glossary On
Versions: 1 2 3 4 5 6 7 8 9 10 11 12 13 14 15 16
000
FTUS45 KBYZ 231720
TAFSHR
TAF
KSHR 231720Z 2318/2418 30008KT P6SM FEW080 BKN250
      TEMPO 2319/2322 24012G22KT
     FM240200 24010KT P6SM FEW100 BKN250
     FM241400 VRB05KT P6SM BKN120=

USA.gov is the U.S. government's official web portal to all federal, state and local government web resources and services.